sensor_id;sensor_type;location;lat;lon;timestamp;temperature;humidity
50013;DHT22;35901;48.694;9.476;2023-02-11T00:01:43;-6.00;99.90
50013;DHT22;35901;48.694;9.476;2023-02-11T00:04:09;-6.10;99.90
50013;DHT22;35901;48.694;9.476;2023-02-11T00:06:35;-6.20;99.90
50013;DHT22;35901;48.694;9.476;2023-02-11T00:09:01;-6.20;99.90
50013;DHT22;35901;48.694;9.476;2023-02-11T00:11:29;-6.20;99.90
50013;DHT22;35901;48.694;9.476;2023-02-11T00:13:56;-6.10;99.90
50013;DHT22;35901;48.694;9.476;2023-02-11T00:16:22;-6.00;99.90
50013;DHT22;35901;48.694;9.476;2023-02-11T00:18:48;-5.80;99.90
50013;DHT22;35901;48.694;9.476;2023-02-11T00:21:23;-5.70;99.90
50013;DHT22;35901;48.694;9.476;2023-02-11T00:23:49;-5.60;99.90
50013;DHT22;35901;48.694;9.476;2023-02-11T00:28:44;-5.50;99.90
50013;DHT22;35901;48.694;9.476;2023-02-11T00:31:10;-5.70;99.90
50013;DHT22;35901;48.694;9.476;2023-02-11T00:33:36;-5.90;99.90
50013;DHT22;35901;48.694;9.476;2023-02-11T00:36:11;-6.10;99.90
50013;DHT22;35901;48.694;9.476;2023-02-11T00:38:37;-6.10;99.90
50013;DHT22;35901;48.694;9.476;2023-02-11T00:41:03;-6.20;99.90
50013;DHT22;35901;48.694;9.476;2023-02-11T00:43:45;-6.10;99.90
50013;DHT22;35901;48.694;9.476;2023-02-11T00:46:12;-6.00;99.90
50013;DHT22;35901;48.694;9.476;2023-02-11T00:48:38;-5.70;99.90
50013;DHT22;35901;48.694;9.476;2023-02-11T00:51:04;-5.60;99.90
50013;DHT22;35901;48.694;9.476;2023-02-11T00:53:31;-5.50;99.90
50013;DHT22;35901;48.694;9.476;2023-02-11T00:55:57;-5.50;99.90
50013;DHT22;35901;48.694;9.476;2023-02-11T00:58:24;-5.70;99.90
50013;DHT22;35901;48.694;9.476;2023-02-11T01:00:50;-5.80;99.90
50013;DHT22;35901;48.694;9.476;2023-02-11T01:03:16;-6.00;99.90
50013;DHT22;35901;48.694;9.476;2023-02-11T01:05:42;-6.10;99.90
50013;DHT22;35901;48.694;9.476;2023-02-11T01:08:08;-6.20;99.90
50013;DHT22;35901;48.694;9.476;2023-02-11T01:10:34;-6.20;99.90
50013;DHT22;35901;48.694;9.476;2023-02-11T01:13:00;-6.20;99.90
50013;DHT22;35901;48.694;9.476;2023-02-11T01:15:32;-6.20;99.90
50013;DHT22;35901;48.694;9.476;2023-02-11T01:17:58;-6.20;99.90
50013;DHT22;35901;48.694;9.476;2023-02-11T01:20:25;-6.30;99.90
50013;DHT22;35901;48.694;9.476;2023-02-11T01:22:51;-6.30;99.90
50013;DHT22;35901;48.694;9.476;2023-02-11T01:25:17;-6.30;99.90
50013;DHT22;35901;48.694;9.476;2023-02-11T01:27:42;-6.40;99.90
50013;DHT22;35901;48.694;9.476;2023-02-11T01:30:12;-6.50;99.90
50013;DHT22;35901;48.694;9.476;2023-02-11T01:32:38;-6.60;99.90
50013;DHT22;35901;48.694;9.476;2023-02-11T01:35:05;-6.70;99.90
50013;DHT22;35901;48.694;9.476;2023-02-11T01:37:34;-6.70;99.90
50013;DHT22;35901;48.694;9.476;2023-02-11T01:40:02;-6.80;99.90
50013;DHT22;35901;48.694;9.476;2023-02-11T01:42:28;-6.90;99.90
50013;DHT22;35901;48.694;9.476;2023-02-11T01:44:55;-6.80;99.90
50013;DHT22;35901;48.694;9.476;2023-02-11T01:47:31;-6.80;99.90
50013;DHT22;35901;48.694;9.476;2023-02-11T01:49:58;-6.70;99.90
50013;DHT22;35901;48.694;9.476;2023-02-11T01:52:30;-6.70;99.90
50013;DHT22;35901;48.694;9.476;2023-02-11T01:55:03;-6.70;99.90
50013;DHT22;35901;48.694;9.476;2023-02-11T01:57:53;-6.70;99.90
50013;DHT22;35901;48.694;9.476;2023-02-11T02:00:34;-6.60;99.90
50013;DHT22;35901;48.694;9.476;2023-02-11T02:03:05;-6.70;99.90
50013;DHT22;35901;48.694;9.476;2023-02-11T02:08:24;-6.80;99.90
50013;DHT22;35901;48.694;9.476;2023-02-11T02:10:55;-6.90;99.90
50013;DHT22;35901;48.694;9.476;2023-02-11T02:13:23;-6.90;99.90
50013;DHT22;35901;48.694;9.476;2023-02-11T02:15:52;-6.80;99.90
50013;DHT22;35901;48.694;9.476;2023-02-11T02:18:51;-6.80;99.90
50013;DHT22;35901;48.694;9.476;2023-02-11T02:24:30;-6.70;99.90
50013;DHT22;35901;48.694;9.476;2023-02-11T02:35:28;-6.30;99.90
50013;DHT22;35901;48.694;9.476;2023-02-11T02:38:17;-6.10;99.90
50013;DHT22;35901;48.694;9.476;2023-02-11T02:41:15;-6.00;99.90
50013;DHT22;35901;48.694;9.476;2023-02-11T02:43:43;-5.90;99.90
50013;DHT22;35901;48.694;9.476;2023-02-11T02:46:18;-5.80;99.90
50013;DHT22;35901;48.694;9.476;2023-02-11T02:48:45;-5.80;99.90
50013;DHT22;35901;48.694;9.476;2023-02-11T03:00:12;-6.00;99.90
50013;DHT22;35901;48.694;9.476;2023-02-11T03:02:41;-6.10;99.90
50013;DHT22;35901;48.694;9.476;2023-02-11T03:10:50;-6.00;99.90
50013;DHT22;35901;48.694;9.476;2023-02-11T03:13:20;-5.90;99.90
50013;DHT22;35901;48.694;9.476;2023-02-11T03:15:49;-5.80;99.90
50013;DHT22;35901;48.694;9.476;2023-02-11T03:23:39;-5.20;99.90
50013;DHT22;35901;48.694;9.476;2023-02-11T03:26:10;-5.30;99.90
50013;DHT22;35901;48.694;9.476;2023-02-11T03:28:54;-5.40;99.90
50013;DHT22;35901;48.694;9.476;2023-02-11T03:31:41;-5.50;99.90
50013;DHT22;35901;48.694;9.476;2023-02-11T03:36:56;-5.70;99.90
50013;DHT22;35901;48.694;9.476;2023-02-11T03:39:29;-5.80;99.90
50013;DHT22;35901;48.694;9.476;2023-02-11T03:41:57;-5.90;99.90
50013;DHT22;35901;48.694;9.476;2023-02-11T03:44:27;-5.90;99.90
50013;DHT22;35901;48.694;9.476;2023-02-11T03:46:55;-5.90;99.90
50013;DHT22;35901;48.694;9.476;2023-02-11T03:49:22;-5.90;99.90
50013;DHT22;35901;48.694;9.476;2023-02-11T03:52:11;-5.90;99.90
50013;DHT22;35901;48.694;9.476;2023-02-11T03:54:39;-5.90;99.90
50013;DHT22;35901;48.694;9.476;2023-02-11T03:57:06;-5.80;99.90
50013;DHT22;35901;48.694;9.476;2023-02-11T04:02:16;-5.70;99.90
50013;DHT22;35901;48.694;9.476;2023-02-11T04:04:42;-5.60;99.90
50013;DHT22;35901;48.694;9.476;2023-02-11T04:07:10;-5.50;99.90
50013;DHT22;35901;48.694;9.476;2023-02-11T04:09:35;-5.40;99.90
50013;DHT22;35901;48.694;9.476;2023-02-11T04:12:01;-5.30;99.90
50013;DHT22;35901;48.694;9.476;2023-02-11T04:14:27;-5.20;99.90
50013;DHT22;35901;48.694;9.476;2023-02-11T04:16:53;-5.10;99.90
50013;DHT22;35901;48.694;9.476;2023-02-11T04:19:18;-5.10;99.90
50013;DHT22;35901;48.694;9.476;2023-02-11T04:21:45;-5.00;99.90
50013;DHT22;35901;48.694;9.476;2023-02-11T04:24:11;-4.90;99.90
50013;DHT22;35901;48.694;9.476;2023-02-11T04:26:36;-4.90;99.90
50013;DHT22;35901;48.694;9.476;2023-02-11T04:29:02;-4.90;99.90
50013;DHT22;35901;48.694;9.476;2023-02-11T04:31:28;-4.90;99.90
50013;DHT22;35901;48.694;9.476;2023-02-11T04:33:53;-4.90;99.90
50013;DHT22;35901;48.694;9.476;2023-02-11T04:36:19;-4.80;99.90
50013;DHT22;35901;48.694;9.476;2023-02-11T04:38:44;-4.80;99.90
50013;DHT22;35901;48.694;9.476;2023-02-11T04:41:10;-4.80;99.90
50013;DHT22;35901;48.694;9.476;2023-02-11T04:43:35;-4.70;99.90
50013;DHT22;35901;48.694;9.476;2023-02-11T04:46:01;-4.60;99.90
50013;DHT22;35901;48.694;9.476;2023-02-11T04:48:27;-4.60;99.90
50013;DHT22;35901;48.694;9.476;2023-02-11T04:50:53;-4.50;99.90
50013;DHT22;35901;48.694;9.476;2023-02-11T04:53:18;-4.50;99.90
50013;DHT22;35901;48.694;9.476;2023-02-11T04:55:44;-4.40;99.90
50013;DHT22;35901;48.694;9.476;2023-02-11T04:58:12;-4.40;99.90
50013;DHT22;35901;48.694;9.476;2023-02-11T05:00:38;-4.40;99.90
50013;DHT22;35901;48.694;9.476;2023-02-11T05:03:03;-4.30;99.90
50013;DHT22;35901;48.694;9.476;2023-02-11T05:05:29;-4.30;99.90
50013;DHT22;35901;48.694;9.476;2023-02-11T05:07:55;-4.20;99.90
50013;DHT22;35901;48.694;9.476;2023-02-11T05:10:21;-4.20;99.90
50013;DHT22;35901;48.694;9.476;2023-02-11T05:12:47;-4.10;99.90
50013;DHT22;35901;48.694;9.476;2023-02-11T05:15:13;-4.10;99.90
50013;DHT22;35901;48.694;9.476;2023-02-11T05:17:39;-4.00;99.90
50013;DHT22;35901;48.694;9.476;2023-02-11T05:20:05;-4.00;99.90
50013;DHT22;35901;48.694;9.476;2023-02-11T05:22:31;-3.90;99.90
50013;DHT22;35901;48.694;9.476;2023-02-11T05:25:13;-3.90;99.90
50013;DHT22;35901;48.694;9.476;2023-02-11T05:27:38;-3.90;99.90
50013;DHT22;35901;48.694;9.476;2023-02-11T05:30:05;-3.90;99.90
50013;DHT22;35901;48.694;9.476;2023-02-11T05:32:32;-3.80;99.90
50013;DHT22;35901;48.694;9.476;2023-02-11T05:34:58;-3.80;99.90
50013;DHT22;35901;48.694;9.476;2023-02-11T05:37:23;-3.80;99.90
50013;DHT22;35901;48.694;9.476;2023-02-11T05:39:49;-3.80;99.90
50013;DHT22;35901;48.694;9.476;2023-02-11T05:42:14;-3.80;99.90
50013;DHT22;35901;48.694;9.476;2023-02-11T05:44:40;-3.80;99.90
50013;DHT22;35901;48.694;9.476;2023-02-11T05:47:06;-3.70;99.90
50013;DHT22;35901;48.694;9.476;2023-02-11T05:49:33;-3.70;99.90
50013;DHT22;35901;48.694;9.476;2023-02-11T05:51:59;-3.70;99.90
50013;DHT22;35901;48.694;9.476;2023-02-11T05:54:25;-3.60;99.90
50013;DHT22;35901;48.694;9.476;2023-02-11T05:57:10;-3.60;99.90
50013;DHT22;35901;48.694;9.476;2023-02-11T05:59:36;-3.60;99.90
50013;DHT22;35901;48.694;9.476;2023-02-11T06:02:02;-3.60;99.90
50013;DHT22;35901;48.694;9.476;2023-02-11T06:04:28;-3.50;99.90
50013;DHT22;35901;48.694;9.476;2023-02-11T06:06:53;-3.50;99.90
50013;DHT22;35901;48.694;9.476;2023-02-11T06:09:19;-3.50;99.90
50013;DHT22;35901;48.694;9.476;2023-02-11T06:11:45;-3.50;99.90
50013;DHT22;35901;48.694;9.476;2023-02-11T06:14:10;-3.50;99.90
50013;DHT22;35901;48.694;9.476;2023-02-11T06:16:36;-3.50;99.90
50013;DHT22;35901;48.694;9.476;2023-02-11T06:19:02;-3.50;99.90
50013;DHT22;35901;48.694;9.476;2023-02-11T06:21:28;-3.50;99.90
50013;DHT22;35901;48.694;9.476;2023-02-11T06:23:54;-3.50;99.90
50013;DHT22;35901;48.694;9.476;2023-02-11T06:26:21;-3.40;99.90
50013;DHT22;35901;48.694;9.476;2023-02-11T06:29:05;-3.40;99.90
50013;DHT22;35901;48.694;9.476;2023-02-11T06:31:31;-3.40;99.90
50013;DHT22;35901;48.694;9.476;2023-02-11T06:33:57;-3.40;99.90
50013;DHT22;35901;48.694;9.476;2023-02-11T06:36:24;-3.40;99.90
50013;DHT22;35901;48.694;9.476;2023-02-11T06:38:49;-3.40;99.90
50013;DHT22;35901;48.694;9.476;2023-02-11T06:41:17;-3.50;99.90
50013;DHT22;35901;48.694;9.476;2023-02-11T06:43:46;-3.60;99.90
50013;DHT22;35901;48.694;9.476;2023-02-11T06:46:12;-3.60;99.90
50013;DHT22;35901;48.694;9.476;2023-02-11T06:48:37;-3.60;99.90
50013;DHT22;35901;48.694;9.476;2023-02-11T06:51:05;-3.60;99.90
50013;DHT22;35901;48.694;9.476;2023-02-11T06:53:33;-3.60;99.90
50013;DHT22;35901;48.694;9.476;2023-02-11T06:56:05;-3.60;99.90
50013;DHT22;35901;48.694;9.476;2023-02-11T07:02:30;-3.60;99.90
50013;DHT22;35901;48.694;9.476;2023-02-11T07:04:56;-3.50;99.90
50013;DHT22;35901;48.694;9.476;2023-02-11T07:07:21;-3.40;99.90
50013;DHT22;35901;48.694;9.476;2023-02-11T07:09:47;-3.30;99.90
50013;DHT22;35901;48.694;9.476;2023-02-11T07:12:12;-3.10;99.90
50013;DHT22;35901;48.694;9.476;2023-02-11T07:14:38;-3.00;99.90
50013;DHT22;35901;48.694;9.476;2023-02-11T07:17:04;-3.00;99.90
50013;DHT22;35901;48.694;9.476;2023-02-11T07:19:30;-2.80;99.90
50013;DHT22;35901;48.694;9.476;2023-02-11T07:21:55;-2.70;99.90
50013;DHT22;35901;48.694;9.476;2023-02-11T07:24:21;-2.60;99.90
50013;DHT22;35901;48.694;9.476;2023-02-11T07:26:47;-2.50;99.90
50013;DHT22;35901;48.694;9.476;2023-02-11T07:29:13;-2.50;99.90
50013;DHT22;35901;48.694;9.476;2023-02-11T07:31:38;-2.40;99.90
50013;DHT22;35901;48.694;9.476;2023-02-11T07:34:04;-2.30;99.90
50013;DHT22;35901;48.694;9.476;2023-02-11T07:36:30;-2.30;99.90
50013;DHT22;35901;48.694;9.476;2023-02-11T07:38:57;-2.10;99.90
50013;DHT22;35901;48.694;9.476;2023-02-11T07:41:25;-2.00;99.90
50013;DHT22;35901;48.694;9.476;2023-02-11T07:43:51;-1.90;99.90
50013;DHT22;35901;48.694;9.476;2023-02-11T07:46:21;-1.90;99.90
50013;DHT22;35901;48.694;9.476;2023-02-11T07:48:47;-1.70;99.90
50013;DHT22;35901;48.694;9.476;2023-02-11T07:51:24;-1.40;99.90
50013;DHT22;35901;48.694;9.476;2023-02-11T07:53:50;-1.40;99.90
50013;DHT22;35901;48.694;9.476;2023-02-11T07:56:17;-1.30;99.90
50013;DHT22;35901;48.694;9.476;2023-02-11T07:58:43;-1.00;99.90
50013;DHT22;35901;48.694;9.476;2023-02-11T08:01:18;-0.60;99.90
50013;DHT22;35901;48.694;9.476;2023-02-11T08:03:50;0.20;99.90
50013;DHT22;35901;48.694;9.476;2023-02-11T08:06:19;0.60;99.90
50013;DHT22;35901;48.694;9.476;2023-02-11T08:08:45;0.50;99.90
50013;DHT22;35901;48.694;9.476;2023-02-11T08:11:18;0.30;99.90
50013;DHT22;35901;48.694;9.476;2023-02-11T08:13:44;0.10;99.90
50013;DHT22;35901;48.694;9.476;2023-02-11T08:18:50;0.00;99.90
50013;DHT22;35901;48.694;9.476;2023-02-11T08:21:17;0.10;99.90
50013;DHT22;35901;48.694;9.476;2023-02-11T08:23:49;0.10;99.90
50013;DHT22;35901;48.694;9.476;2023-02-11T08:26:21;0.00;99.90
50013;DHT22;35901;48.694;9.476;2023-02-11T08:28:52;-0.10;99.90
50013;DHT22;35901;48.694;9.476;2023-02-11T08:31:34;-0.20;99.90
50013;DHT22;35901;48.694;9.476;2023-02-11T08:34:02;-0.20;99.90
50013;DHT22;35901;48.694;9.476;2023-02-11T08:36:30;-0.20;99.90
50013;DHT22;35901;48.694;9.476;2023-02-11T08:38:58;-0.10;99.90
50013;DHT22;35901;48.694;9.476;2023-02-11T08:41:25;0.00;99.90
50013;DHT22;35901;48.694;9.476;2023-02-11T08:43:51;0.00;99.90
50013;DHT22;35901;48.694;9.476;2023-02-11T08:46:18;0.20;99.90
50013;DHT22;35901;48.694;9.476;2023-02-11T08:48:45;0.30;99.90
50013;DHT22;35901;48.694;9.476;2023-02-11T08:51:15;0.40;99.90
50013;DHT22;35901;48.694;9.476;2023-02-11T08:53:41;0.50;99.90
50013;DHT22;35901;48.694;9.476;2023-02-11T08:56:08;0.50;99.90
50013;DHT22;35901;48.694;9.476;2023-02-11T08:58:34;0.50;99.90
50013;DHT22;35901;48.694;9.476;2023-02-11T09:01:00;0.40;99.90
50013;DHT22;35901;48.694;9.476;2023-02-11T09:10:42;0.40;99.90
50013;DHT22;35901;48.694;9.476;2023-02-11T09:13:08;0.60;99.90
50013;DHT22;35901;48.694;9.476;2023-02-11T09:15:34;0.80;99.90
50013;DHT22;35901;48.694;9.476;2023-02-11T09:18:00;1.30;99.90
50013;DHT22;35901;48.694;9.476;2023-02-11T09:20:26;2.00;99.90
50013;DHT22;35901;48.694;9.476;2023-02-11T09:22:53;2.80;99.90
50013;DHT22;35901;48.694;9.476;2023-02-11T09:25:20;3.10;99.90
50013;DHT22;35901;48.694;9.476;2023-02-11T09:27:46;3.30;99.90
50013;DHT22;35901;48.694;9.476;2023-02-11T09:30:12;3.70;99.90
50013;DHT22;35901;48.694;9.476;2023-02-11T09:32:38;3.80;99.90
50013;DHT22;35901;48.694;9.476;2023-02-11T09:39:17;4.10;99.90
50013;DHT22;35901;48.694;9.476;2023-02-11T09:44:27;4.50;99.90
50013;DHT22;35901;48.694;9.476;2023-02-11T09:46:56;4.60;99.90
50013;DHT22;35901;48.694;9.476;2023-02-11T09:49:46;4.70;99.90
50013;DHT22;35901;48.694;9.476;2023-02-11T09:54:58;4.90;99.90
50013;DHT22;35901;48.694;9.476;2023-02-11T09:57:31;5.00;99.90
50013;DHT22;35901;48.694;9.476;2023-02-11T09:59:57;5.20;99.90
50013;DHT22;35901;48.694;9.476;2023-02-11T10:02:29;5.40;99.90
50013;DHT22;35901;48.694;9.476;2023-02-11T10:17:24;4.90;99.90
50013;DHT22;35901;48.694;9.476;2023-02-11T10:22:39;4.70;99.90
50013;DHT22;35901;48.694;9.476;2023-02-11T10:25:27;4.50;99.90
50013;DHT22;35901;48.694;9.476;2023-02-11T10:27:56;4.20;99.90
50013;DHT22;35901;48.694;9.476;2023-02-11T10:30:31;4.00;99.90
50013;DHT22;35901;48.694;9.476;2023-02-11T10:33:27;3.90;99.90
50013;DHT22;35901;48.694;9.476;2023-02-11T10:35:54;3.90;99.90
50013;DHT22;35901;48.694;9.476;2023-02-11T10:42:11;4.90;99.90
50013;DHT22;35901;48.694;9.476;2023-02-11T10:44:42;5.70;99.90
50013;DHT22;35901;48.694;9.476;2023-02-11T10:47:22;6.10;99.90
50013;DHT22;35901;48.694;9.476;2023-02-11T10:49:48;6.60;99.90
50013;DHT22;35901;48.694;9.476;2023-02-11T10:52:24;7.00;99.90
50013;DHT22;35901;48.694;9.476;2023-02-11T10:55:08;7.30;99.90
50013;DHT22;35901;48.694;9.476;2023-02-11T10:58:00;7.60;99.90
50013;DHT22;35901;48.694;9.476;2023-02-11T11:00:36;7.90;99.90
50013;DHT22;35901;48.694;9.476;2023-02-11T11:03:20;8.00;99.90
50013;DHT22;35901;48.694;9.476;2023-02-11T11:06:32;8.30;99.90
50013;DHT22;35901;48.694;9.476;2023-02-11T11:08:59;8.40;99.90
50013;DHT22;35901;48.694;9.476;2023-02-11T11:11:26;8.70;99.90
50013;DHT22;35901;48.694;9.476;2023-02-11T11:16:28;9.20;99.90
50013;DHT22;35901;48.694;9.476;2023-02-11T11:21:43;9.00;97.20
50013;DHT22;35901;48.694;9.476;2023-02-11T11:24:38;8.90;97.10
50013;DHT22;35901;48.694;9.476;2023-02-11T11:27:03;8.90;96.80
50013;DHT22;35901;48.694;9.476;2023-02-11T11:29:46;9.20;97.10
50013;DHT22;35901;48.694;9.476;2023-02-11T11:32:31;9.60;96.70
50013;DHT22;35901;48.694;9.476;2023-02-11T11:35:06;9.90;96.20
50013;DHT22;35901;48.694;9.476;2023-02-11T11:37:42;9.90;95.30
50013;DHT22;35901;48.694;9.476;2023-02-11T11:42:41;9.60;94.30
50013;DHT22;35901;48.694;9.476;2023-02-11T11:47:55;9.70;94.20
50013;DHT22;35901;48.694;9.476;2023-02-11T11:56:25;10.00;92.50
50013;DHT22;35901;48.694;9.476;2023-02-11T11:58:51;10.10;92.50
50013;DHT22;35901;48.694;9.476;2023-02-11T12:04:40;10.60;92.50
50013;DHT22;35901;48.694;9.476;2023-02-11T12:21:34;10.40;91.10
50013;DHT22;35901;48.694;9.476;2023-02-11T12:29:47;10.40;91.60
50013;DHT22;35901;48.694;9.476;2023-02-11T12:32:34;10.40;92.40
50013;DHT22;35901;48.694;9.476;2023-02-11T12:38:02;9.90;91.90
50013;DHT22;35901;48.694;9.476;2023-02-11T12:43:31;9.50;92.10
50013;DHT22;35901;48.694;9.476;2023-02-11T12:49:05;9.40;92.70
50013;DHT22;35901;48.694;9.476;2023-02-11T12:54:30;9.30;92.70
50013;DHT22;35901;48.694;9.476;2023-02-11T12:57:11;9.20;93.10
50013;DHT22;35901;48.694;9.476;2023-02-11T13:00:11;9.10;92.90
50013;DHT22;35901;48.694;9.476;2023-02-11T13:03:05;9.00;93.00
50013;DHT22;35901;48.694;9.476;2023-02-11T13:11:11;8.90;93.40
50013;DHT22;35901;48.694;9.476;2023-02-11T13:13:53;8.80;93.50
50013;DHT22;35901;48.694;9.476;2023-02-11T13:16:45;8.80;93.50
50013;DHT22;35901;48.694;9.476;2023-02-11T13:19:23;8.80;93.50
50013;DHT22;35901;48.694;9.476;2023-02-11T13:22:02;8.70;93.60
50013;DHT22;35901;48.694;9.476;2023-02-11T13:30:31;8.80;93.80
50013;DHT22;35901;48.694;9.476;2023-02-11T13:35:32;8.90;93.70
50013;DHT22;35901;48.694;9.476;2023-02-11T13:38:19;8.90;93.90
50013;DHT22;35901;48.694;9.476;2023-02-11T13:43:24;8.90;93.80
50013;DHT22;35901;48.694;9.476;2023-02-11T13:45:57;9.00;93.70
50013;DHT22;35901;48.694;9.476;2023-02-11T13:48:27;9.00;93.80
50013;DHT22;35901;48.694;9.476;2023-02-11T13:51:01;8.90;94.10
50013;DHT22;35901;48.694;9.476;2023-02-11T13:53:28;8.90;93.90
50013;DHT22;35901;48.694;9.476;2023-02-11T13:56:11;8.70;93.70
50013;DHT22;35901;48.694;9.476;2023-02-11T13:58:46;8.60;93.80
50013;DHT22;35901;48.694;9.476;2023-02-11T14:04:19;8.40;94.20
50013;DHT22;35901;48.694;9.476;2023-02-11T14:13:33;8.10;94.90
50013;DHT22;35901;48.694;9.476;2023-02-11T14:23:45;8.00;95.40
50013;DHT22;35901;48.694;9.476;2023-02-11T14:32:05;8.00;95.60
50013;DHT22;35901;48.694;9.476;2023-02-11T14:34:50;8.00;95.80
50013;DHT22;35901;48.694;9.476;2023-02-11T14:37:29;8.00;96.80
50013;DHT22;35901;48.694;9.476;2023-02-11T14:40:25;8.00;97.30
50013;DHT22;35901;48.694;9.476;2023-02-11T14:42:54;8.20;96.70
50013;DHT22;35901;48.694;9.476;2023-02-11T14:45:26;8.20;96.40
50013;DHT22;35901;48.694;9.476;2023-02-11T14:48:02;8.30;96.60
50013;DHT22;35901;48.694;9.476;2023-02-11T14:50:47;8.40;96.90
50013;DHT22;35901;48.694;9.476;2023-02-11T14:53:16;8.40;97.50
50013;DHT22;35901;48.694;9.476;2023-02-11T14:55:46;8.40;97.10
50013;DHT22;35901;48.694;9.476;2023-02-11T15:00:57;8.40;97.60
50013;DHT22;35901;48.694;9.476;2023-02-11T15:05:59;8.40;98.00
50013;DHT22;35901;48.694;9.476;2023-02-11T15:08:25;8.40;98.10
50013;DHT22;35901;48.694;9.476;2023-02-11T15:10:52;8.40;98.20
50013;DHT22;35901;48.694;9.476;2023-02-11T15:13:22;8.30;98.50
50013;DHT22;35901;48.694;9.476;2023-02-11T15:15:55;8.30;98.70
50013;DHT22;35901;48.694;9.476;2023-02-11T15:18:25;8.30;98.80
50013;DHT22;35901;48.694;9.476;2023-02-11T15:20:54;8.20;99.00
50013;DHT22;35901;48.694;9.476;2023-02-11T15:23:29;8.10;99.00
50013;DHT22;35901;48.694;9.476;2023-02-11T15:25:55;8.00;99.80
50013;DHT22;35901;48.694;9.476;2023-02-11T15:28:27;7.90;99.80
50013;DHT22;35901;48.694;9.476;2023-02-11T15:31:13;7.90;99.90
50013;DHT22;35901;48.694;9.476;2023-02-11T15:33:39;7.80;99.90
50013;DHT22;35901;48.694;9.476;2023-02-11T15:36:05;7.90;99.90
50013;DHT22;35901;48.694;9.476;2023-02-11T15:38:31;7.90;99.90
50013;DHT22;35901;48.694;9.476;2023-02-11T15:41:02;7.90;99.90
50013;DHT22;35901;48.694;9.476;2023-02-11T15:43:48;7.90;99.90
50013;DHT22;35901;48.694;9.476;2023-02-11T15:46:22;8.00;99.90
50013;DHT22;35901;48.694;9.476;2023-02-11T15:48:49;7.90;99.90
50013;DHT22;35901;48.694;9.476;2023-02-11T15:51:43;7.90;99.90
50013;DHT22;35901;48.694;9.476;2023-02-11T15:54:19;7.80;99.90
50013;DHT22;35901;48.694;9.476;2023-02-11T15:56:48;7.70;99.90
50013;DHT22;35901;48.694;9.476;2023-02-11T15:59:22;7.50;99.90
50013;DHT22;35901;48.694;9.476;2023-02-11T16:01:51;7.40;99.90
50013;DHT22;35901;48.694;9.476;2023-02-11T16:04:19;7.20;99.90
50013;DHT22;35901;48.694;9.476;2023-02-11T16:06:46;7.10;99.90
50013;DHT22;35901;48.694;9.476;2023-02-11T16:16:50;6.40;99.90
50013;DHT22;35901;48.694;9.476;2023-02-11T16:19:21;6.30;99.90
50013;DHT22;35901;48.694;9.476;2023-02-11T16:21:48;6.10;99.90
50013;DHT22;35901;48.694;9.476;2023-02-11T16:24:23;5.90;99.90
50013;DHT22;35901;48.694;9.476;2023-02-11T16:26:56;5.70;99.90
50013;DHT22;35901;48.694;9.476;2023-02-11T16:29:28;5.60;99.90
50013;DHT22;35901;48.694;9.476;2023-02-11T16:32:08;5.60;99.90
50013;DHT22;35901;48.694;9.476;2023-02-11T16:34:34;5.60;99.90
50013;DHT22;35901;48.694;9.476;2023-02-11T16:37:03;5.60;99.90
50013;DHT22;35901;48.694;9.476;2023-02-11T16:39:29;5.60;99.90
50013;DHT22;35901;48.694;9.476;2023-02-11T16:41:55;5.60;99.90
50013;DHT22;35901;48.694;9.476;2023-02-11T16:44:21;5.60;99.90
50013;DHT22;35901;48.694;9.476;2023-02-11T16:46:47;5.60;99.90
50013;DHT22;35901;48.694;9.476;2023-02-11T16:49:25;5.70;99.90
50013;DHT22;35901;48.694;9.476;2023-02-11T16:51:53;5.70;99.90
50013;DHT22;35901;48.694;9.476;2023-02-11T16:54:22;5.70;99.90
50013;DHT22;35901;48.694;9.476;2023-02-11T16:56:48;5.70;99.90
50013;DHT22;35901;48.694;9.476;2023-02-11T16:59:14;5.70;99.90
50013;DHT22;35901;48.694;9.476;2023-02-11T17:01:41;5.70;99.90
50013;DHT22;35901;48.694;9.476;2023-02-11T17:04:14;5.70;99.90
50013;DHT22;35901;48.694;9.476;2023-02-11T17:06:41;5.70;99.90
50013;DHT22;35901;48.694;9.476;2023-02-11T17:09:10;5.60;99.90
50013;DHT22;35901;48.694;9.476;2023-02-11T17:11:39;5.60;99.90
50013;DHT22;35901;48.694;9.476;2023-02-11T17:14:05;5.60;99.90
50013;DHT22;35901;48.694;9.476;2023-02-11T17:16:31;5.60;99.90
50013;DHT22;35901;48.694;9.476;2023-02-11T17:18:57;5.60;99.90
50013;DHT22;35901;48.694;9.476;2023-02-11T17:21:22;5.60;99.90
50013;DHT22;35901;48.694;9.476;2023-02-11T17:23:50;5.60;99.90
50013;DHT22;35901;48.694;9.476;2023-02-11T17:26:15;5.60;99.90
50013;DHT22;35901;48.694;9.476;2023-02-11T17:28:41;5.60;99.90
50013;DHT22;35901;48.694;9.476;2023-02-11T17:31:09;5.60;99.90
50013;DHT22;35901;48.694;9.476;2023-02-11T17:33:35;5.50;99.90
50013;DHT22;35901;48.694;9.476;2023-02-11T17:36:09;5.50;99.90
50013;DHT22;35901;48.694;9.476;2023-02-11T17:38:36;5.40;99.90
50013;DHT22;35901;48.694;9.476;2023-02-11T17:41:03;5.40;99.90
50013;DHT22;35901;48.694;9.476;2023-02-11T17:43:29;5.40;99.90
50013;DHT22;35901;48.694;9.476;2023-02-11T17:45:56;5.40;99.90
50013;DHT22;35901;48.694;9.476;2023-02-11T17:48:21;5.30;99.90
50013;DHT22;35901;48.694;9.476;2023-02-11T17:50:47;5.30;99.90
50013;DHT22;35901;48.694;9.476;2023-02-11T17:53:13;5.30;99.90
50013;DHT22;35901;48.694;9.476;2023-02-11T17:55:38;5.30;99.90
50013;DHT22;35901;48.694;9.476;2023-02-11T17:58:05;5.30;99.90
50013;DHT22;35901;48.694;9.476;2023-02-11T18:00:32;5.30;99.90
50013;DHT22;35901;48.694;9.476;2023-02-11T18:02:58;5.30;99.90
50013;DHT22;35901;48.694;9.476;2023-02-11T18:05:35;5.30;99.90
50013;DHT22;35901;48.694;9.476;2023-02-11T18:08:03;5.20;99.90
50013;DHT22;35901;48.694;9.476;2023-02-11T18:10:29;5.20;99.90
50013;DHT22;35901;48.694;9.476;2023-02-11T18:12:55;5.20;99.90
50013;DHT22;35901;48.694;9.476;2023-02-11T18:15:21;5.20;99.90
50013;DHT22;35901;48.694;9.476;2023-02-11T18:17:47;5.20;99.90
50013;DHT22;35901;48.694;9.476;2023-02-11T18:20:13;5.20;99.90
50013;DHT22;35901;48.694;9.476;2023-02-11T18:22:39;5.20;99.90
50013;DHT22;35901;48.694;9.476;2023-02-11T18:25:07;5.20;99.90
50013;DHT22;35901;48.694;9.476;2023-02-11T18:27:32;5.20;99.90
50013;DHT22;35901;48.694;9.476;2023-02-11T18:29:58;5.10;99.90
50013;DHT22;35901;48.694;9.476;2023-02-11T18:32:24;5.10;99.90
50013;DHT22;35901;48.694;9.476;2023-02-11T18:34:49;5.10;99.90
50013;DHT22;35901;48.694;9.476;2023-02-11T18:37:15;5.00;99.90
50013;DHT22;35901;48.694;9.476;2023-02-11T18:39:41;5.00;99.90
50013;DHT22;35901;48.694;9.476;2023-02-11T18:42:08;4.90;99.90
50013;DHT22;35901;48.694;9.476;2023-02-11T18:44:34;4.90;99.90
50013;DHT22;35901;48.694;9.476;2023-02-11T18:47:00;4.80;99.90
50013;DHT22;35901;48.694;9.476;2023-02-11T18:49:26;4.80;99.90
50013;DHT22;35901;48.694;9.476;2023-02-11T18:51:52;4.70;99.90
50013;DHT22;35901;48.694;9.476;2023-02-11T18:54:17;4.50;99.90
50013;DHT22;35901;48.694;9.476;2023-02-11T18:56:43;4.40;99.90
50013;DHT22;35901;48.694;9.476;2023-02-11T18:59:09;4.40;99.90
50013;DHT22;35901;48.694;9.476;2023-02-11T19:01:35;4.30;99.90
50013;DHT22;35901;48.694;9.476;2023-02-11T19:04:03;4.30;99.90